createdAt,value
2019-04-19T00:00:17.596Z,4.00
2019-04-19T00:01:15.417Z,4.00
2019-04-19T00:02:15.305Z,4.00
2019-04-19T00:03:20.316Z,4.00
2019-04-19T00:04:16.883Z,4.00
2019-04-19T00:05:13.229Z,4.00
2019-04-19T00:06:18.993Z,4.00
2019-04-19T00:07:19.609Z,4.00
2019-04-19T00:08:28.807Z,4.00
2019-04-19T00:09:28.921Z,4.00
2019-04-19T00:10:24.931Z,4.00
2019-04-19T00:11:25.796Z,4.00
2019-04-19T00:12:25.321Z,4.00
2019-04-19T00:13:13.564Z,4.00
2019-04-19T00:14:13.144Z,4.00
2019-04-19T00:15:13.923Z,4.00
2019-04-19T00:16:13.183Z,4.00
2019-04-19T00:17:19.832Z,4.00
2019-04-19T00:18:16.414Z,4.00
2019-04-19T00:19:30.614Z,4.00
2019-04-19T00:20:32.764Z,4.00
2019-04-19T00:21:30.451Z,4.00
2019-04-19T00:22:31.781Z,4.00
2019-04-19T00:23:23.921Z,4.00
2019-04-19T00:24:14.398Z,4.00
2019-04-19T00:25:13.477Z,4.00
2019-04-19T00:26:14.706Z,4.00
2019-04-19T00:27:13.991Z,4.00
2019-04-19T00:28:22.487Z,4.00
2019-04-19T00:29:22.573Z,4.00
2019-04-19T00:30:24.324Z,4.00
2019-04-19T00:31:27.709Z,4.00
2019-04-19T00:32:30.352Z,4.00
2019-04-19T00:33:25.064Z,4.00
2019-04-19T00:34:14.689Z,4.00
2019-04-19T00:35:13.720Z,4.00
2019-04-19T00:36:15.270Z,4.00
2019-04-19T00:37:14.439Z,4.00
2019-04-19T00:38:25.240Z,4.00
2019-04-19T00:39:31.503Z,4.00
2019-04-19T00:40:33.085Z,4.00
2019-04-19T00:41:28.240Z,4.00
2019-04-19T00:42:32.714Z,4.00
2019-04-19T00:43:35.964Z,4.00
2019-04-19T00:44:33.054Z,4.00
2019-04-19T00:46:29.278Z,4.00
2019-04-19T00:47:31.076Z,4.00
2019-04-19T00:48:29.792Z,4.00
2019-04-19T00:49:22.986Z,4.00
2019-04-19T00:50:23.931Z,4.00
2019-04-19T00:51:25.118Z,4.00
2019-04-19T00:52:34.240Z,4.00
2019-04-19T00:53:27.517Z,4.00
2019-04-19T00:54:22.785Z,4.00
2019-04-19T00:55:22.833Z,4.00
2019-04-19T00:56:23.510Z,4.00
2019-04-19T00:57:21.679Z,4.00
2019-04-19T00:58:20.110Z,4.00
2019-04-19T00:59:16.639Z,4.00
2019-04-19T01:00:18.753Z,4.00
2019-04-19T01:01:19.805Z,4.00
2019-04-19T01:02:17.383Z,4.00
2019-04-19T01:03:16.171Z,4.00
2019-04-19T01:04:20.440Z,4.00
2019-04-19T01:05:18.113Z,4.00
2019-04-19T01:06:18.271Z,4.00
2019-04-19T01:07:22.167Z,4.00
2019-04-19T01:08:20.789Z,4.00
2019-04-19T01:09:28.567Z,4.00
2019-04-19T01:10:26.775Z,4.00
2019-04-19T01:11:27.690Z,4.00
2019-04-19T01:12:22.652Z,4.00
2019-04-19T01:13:29.366Z,4.00
2019-04-19T01:14:29.046Z,4.00
2019-04-19T01:15:26.299Z,4.00
2019-04-19T01:16:25.631Z,0.00
2019-04-19T01:17:28.529Z,4.00
2019-04-19T01:18:25.387Z,4.00
2019-04-19T01:19:17.888Z,4.00
2019-04-19T01:20:15.642Z,4.00
2019-04-19T01:21:15.404Z,4.00
2019-04-19T01:22:21.206Z,4.00
2019-04-19T01:23:16.718Z,4.00
2019-04-19T01:24:17.994Z,4.00
2019-04-19T01:25:16.140Z,4.00
2019-04-19T01:26:15.541Z,0.00
2019-04-19T01:27:20.456Z,0.00
2019-04-19T01:28:19.579Z,0.00
2019-04-19T01:29:18.052Z,4.00
2019-04-19T01:30:17.968Z,0.00
2019-04-19T01:31:19.123Z,4.00
2019-04-19T01:32:17.076Z,0.00
2019-04-19T01:33:14.691Z,0.00
2019-04-19T01:34:18.156Z,0.00
2019-04-19T01:35:18.354Z,0.00
2019-04-19T01:36:14.715Z,0.00
2019-04-19T01:37:19.520Z,4.00
2019-04-19T01:38:15.184Z,0.00
2019-04-19T01:39:30.382Z,0.00
2019-04-19T01:40:29.347Z,4.00
2019-04-19T01:41:31.751Z,4.00
2019-04-19T01:42:35.423Z,4.00
2019-04-19T01:43:35.723Z,4.00
2019-04-19T01:44:33.278Z,4.00
2019-04-19T01:45:30.196Z,4.00
2019-04-19T01:46:35.701Z,4.00
2019-04-19T01:47:37.482Z,4.00
2019-04-19T01:48:33.863Z,4.00
2019-04-19T01:49:25.891Z,4.00
2019-04-19T01:50:31.656Z,4.00
2019-04-19T01:51:36.757Z,4.00
2019-04-19T01:52:40.944Z,4.00
2019-04-19T01:53:33.118Z,4.00
2019-04-19T01:54:29.872Z,4.00
2019-04-19T01:55:23.626Z,4.00
2019-04-19T01:56:18.107Z,4.00
2019-04-19T01:57:16.370Z,4.00
2019-04-19T01:58:18.921Z,4.00
2019-04-19T01:59:15.995Z,4.00
2019-04-19T02:00:26.126Z,4.00
2019-04-19T02:01:20.623Z,4.00
2019-04-19T02:02:18.106Z,4.00
2019-04-19T02:03:15.224Z,4.00
2019-04-19T02:04:20.747Z,4.00
2019-04-19T02:05:18.244Z,4.00
2019-04-19T02:06:17.751Z,4.00
2019-04-19T02:07:19.706Z,4.00
2019-04-19T02:08:16.414Z,4.00
2019-04-19T02:09:26.869Z,4.00
2019-04-19T02:10:34.737Z,4.00
2019-04-19T02:11:27.740Z,4.00
2019-04-19T02:12:30.397Z,4.00
2019-04-19T02:13:24.779Z,4.00
2019-04-19T02:14:22.066Z,4.00
2019-04-19T02:15:26.790Z,4.00
2019-04-19T02:16:20.051Z,0.00
2019-04-19T02:17:18.036Z,4.00
2019-04-19T02:18:21.881Z,4.00
2019-04-19T02:19:19.516Z,4.00
2019-04-19T02:20:17.041Z,4.00
2019-04-19T02:21:24.501Z,4.00
2019-04-19T02:22:22.792Z,4.00
2019-04-19T02:23:17.320Z,0.00
2019-04-19T02:24:16.915Z,4.00
2019-04-19T02:25:20.973Z,0.00
2019-04-19T02:26:19.676Z,4.00
2019-04-19T02:27:16.948Z,0.00
2019-04-19T02:28:23.025Z,0.00
2019-04-19T02:29:20.241Z,4.00
2019-04-19T02:30:26.960Z,4.00
2019-04-19T02:31:35.964Z,4.00
2019-04-19T02:32:32.440Z,4.00
2019-04-19T02:33:43.010Z,4.00
2019-04-19T02:34:43.018Z,4.00
2019-04-19T02:35:41.893Z,4.00
2019-04-19T02:36:53.852Z,4.00
2019-04-19T02:37:37.670Z,4.00
2019-04-19T02:38:52.099Z,4.00
2019-04-19T02:39:45.479Z,4.00
2019-04-19T02:40:52.857Z,4.00
2019-04-19T02:41:38.249Z,4.00
2019-04-19T02:43:54.322Z,4.00
2019-04-19T02:44:57.988Z,4.00
2019-04-19T02:45:45.457Z,4.00
2019-04-19T02:48:48.079Z,4.00
2019-04-19T02:49:57.982Z,0.00
2019-04-19T02:51:44.960Z,0.00
2019-04-19T02:52:57.029Z,0.00
2019-04-19T02:53:47.030Z,4.00
2019-04-19T02:54:58.670Z,4.00
2019-04-19T02:55:50.044Z,4.00
2019-04-19T02:56:52.192Z,4.00
2019-04-19T02:57:42.402Z,4.00
2019-04-19T02:58:42.010Z,4.00
2019-04-19T02:59:50.660Z,4.00
2019-04-19T03:00:43.673Z,4.00
2019-04-19T03:01:44.365Z,4.00
2019-04-19T03:02:47.792Z,4.00
2019-04-19T03:03:32.192Z,4.00
2019-04-19T03:04:53.332Z,4.00
2019-04-19T03:05:36.972Z,4.00
2019-04-19T03:06:29.211Z,4.00
2019-04-19T03:07:17.535Z,4.00
2019-04-19T03:08:16.597Z,4.00
2019-04-19T03:09:17.489Z,4.00
2019-04-19T03:10:18.285Z,4.00
2019-04-19T03:11:36.495Z,4.00
2019-04-19T03:12:37.900Z,4.00
2019-04-19T03:13:33.351Z,4.00
2019-04-19T03:14:31.651Z,4.00
2019-04-19T03:15:37.174Z,4.00
2019-04-19T03:16:37.107Z,4.00
2019-04-19T03:17:34.682Z,4.00
2019-04-19T03:18:46.832Z,0.00
2019-04-19T03:19:27.709Z,0.00
2019-04-19T03:20:30.117Z,4.00
2019-04-19T03:21:31.947Z,4.00
2019-04-19T03:22:28.107Z,4.00
2019-04-19T03:23:30.689Z,4.00
2019-04-19T03:24:30.195Z,4.00
2019-04-19T03:25:29.164Z,4.00
2019-04-19T03:26:33.645Z,4.00
2019-04-19T03:27:24.240Z,4.00
2019-04-19T03:28:26.142Z,4.00
2019-04-19T03:29:24.548Z,4.00
2019-04-19T03:30:37.933Z,4.00
2019-04-19T03:33:04.648Z,0.00
2019-04-19T03:33:52.866Z,0.00
2019-04-19T03:34:51.885Z,4.00
2019-04-19T03:35:40.966Z,4.00
2019-04-19T03:36:32.093Z,4.00
2019-04-19T03:37:39.965Z,4.00
2019-04-19T03:38:35.030Z,4.00
2019-04-19T03:39:37.146Z,4.00
2019-04-19T03:40:37.415Z,4.00
2019-04-19T03:41:46.756Z,4.00
2019-04-19T03:42:40.903Z,4.00
2019-04-19T03:43:35.305Z,4.00
2019-04-19T03:44:32.326Z,4.00
2019-04-19T03:45:33.537Z,4.00
2019-04-19T03:46:40.667Z,4.00
2019-04-19T03:47:37.703Z,4.00
2019-04-19T03:48:42.386Z,4.00
2019-04-19T03:50:34.096Z,4.00
2019-04-19T03:51:40.619Z,8.00
2019-04-19T03:52:36.996Z,8.00
2019-04-19T03:53:46.294Z,4.00
2019-04-19T03:54:32.706Z,4.00
2019-04-19T03:55:39.408Z,8.00
2019-04-19T03:56:36.222Z,8.00
2019-04-19T03:57:31.341Z,8.00
2019-04-19T03:58:21.495Z,8.00
2019-04-19T03:59:18.326Z,8.00
2019-04-19T04:00:17.488Z,12.00
2019-04-19T04:01:17.399Z,8.00
2019-04-19T04:02:24.551Z,12.00
2019-04-19T04:03:24.292Z,12.00
2019-04-19T04:04:22.252Z,12.00
2019-04-19T04:05:19.510Z,16.00
2019-04-19T04:06:22.014Z,12.00
2019-04-19T04:07:22.780Z,16.00
2019-04-19T04:08:21.124Z,16.00
2019-04-19T04:09:18.284Z,20.00
2019-04-19T04:10:23.950Z,24.00
2019-04-19T04:11:22.490Z,24.00
2019-04-19T04:12:32.210Z,32.00
2019-04-19T04:13:30.701Z,36.00
2019-04-19T04:14:26.996Z,40.00
2019-04-19T04:15:36.468Z,48.00
2019-04-19T04:16:28.040Z,52.00
2019-04-19T04:17:18.568Z,56.00
2019-04-19T04:18:17.739Z,64.00
2019-04-19T04:19:18.612Z,72.00
2019-04-19T04:20:17.832Z,80.00
2019-04-19T04:21:22.483Z,88.00
2019-04-19T04:22:24.869Z,100.00
2019-04-19T04:23:25.413Z,108.00
2019-04-19T04:24:24.872Z,116.00
2019-04-19T04:25:22.604Z,128.00
2019-04-19T04:26:27.772Z,144.00
2019-04-19T04:27:31.648Z,156.00
2019-04-19T04:28:35.248Z,164.00
2019-04-19T04:29:27.393Z,176.00
2019-04-19T04:30:27.637Z,196.00
2019-04-19T04:31:26.322Z,208.00
2019-04-19T04:32:34.115Z,228.00
2019-04-19T04:33:32.706Z,244.00
2019-04-19T04:34:33.251Z,260.00
2019-04-19T04:35:30.610Z,276.00
2019-04-19T04:36:36.478Z,296.00
2019-04-19T04:37:35.690Z,312.00
2019-04-19T04:38:25.710Z,328.00
2019-04-19T04:39:18.083Z,352.00
2019-04-19T04:40:18.824Z,368.00
2019-04-19T04:41:24.450Z,392.00
2019-04-19T04:42:26.854Z,412.00
2019-04-19T04:43:33.436Z,428.00
2019-04-19T04:44:36.349Z,452.00
2019-04-19T04:45:35.489Z,472.00
2019-04-19T04:46:38.897Z,492.00
2019-04-19T04:47:37.077Z,516.00
2019-04-19T04:48:38.947Z,540.00
2019-04-19T04:49:43.364Z,560.00
2019-04-19T04:50:48.284Z,588.00
2019-04-19T04:51:36.328Z,616.00
2019-04-19T04:52:23.845Z,640.00
2019-04-19T04:53:19.362Z,664.00
2019-04-19T04:54:18.611Z,684.00
2019-04-19T04:55:18.370Z,708.00
2019-04-19T04:56:19.424Z,724.00
2019-04-19T04:57:28.525Z,748.00
2019-04-19T04:58:25.133Z,776.00
2019-04-19T04:59:22.263Z,808.00
2019-04-19T05:00:22.250Z,832.00
2019-04-19T05:01:32.397Z,860.00
2019-04-19T05:02:35.402Z,884.00
2019-04-19T05:03:40.143Z,912.00
2019-04-19T05:04:29.481Z,936.00
2019-04-19T05:05:34.767Z,960.00
2019-04-19T05:06:35.322Z,984.00
2019-04-19T05:07:45.645Z,1012.00
2019-04-19T05:08:36.237Z,1032.00
2019-04-19T05:09:40.902Z,1056.00
2019-04-19T05:10:31.703Z,1080.00
2019-04-19T05:11:35.113Z,1100.00
2019-04-19T05:12:54.769Z,1124.00
2019-04-19T05:13:39.156Z,1136.00
2019-04-19T05:14:36.235Z,1152.00
2019-04-19T05:15:39.976Z,1172.00
2019-04-19T05:17:47.317Z,1216.00
2019-04-19T05:18:36.457Z,1240.00
2019-04-19T05:19:40.531Z,1280.00
2019-04-19T05:20:35.654Z,1352.00
2019-04-19T05:21:37.360Z,1476.00
2019-04-19T05:22:32.644Z,1600.00
2019-04-19T05:23:34.191Z,1660.00
2019-04-19T05:24:49.411Z,1680.00
2019-04-19T05:25:41.656Z,1692.00
2019-04-19T05:26:45.022Z,1676.00
2019-04-19T05:27:40.246Z,1608.00
2019-04-19T05:28:37.524Z,1496.00
2019-04-19T05:29:29.641Z,1448.00
2019-04-19T05:30:19.673Z,1476.00
2019-04-19T05:31:29.026Z,1496.00
2019-04-19T05:32:24.161Z,1524.00
2019-04-19T05:33:34.256Z,1548.00
2019-04-19T05:34:36.501Z,1576.00
2019-04-19T05:35:29.575Z,1596.00
2019-04-19T05:36:39.165Z,1624.00
2019-04-19T05:37:38.469Z,1648.00
2019-04-19T05:38:43.167Z,1668.00
2019-04-19T05:39:43.822Z,1692.00
2019-04-19T05:40:37.693Z,1716.00
2019-04-19T05:41:34.968Z,1736.00
2019-04-19T05:42:37.137Z,1748.00
2019-04-19T05:43:57.327Z,1764.00
2019-04-19T05:44:42.456Z,1780.00
2019-04-19T05:45:51.861Z,1804.00
2019-04-19T05:46:42.484Z,1820.00
2019-04-19T05:47:33.640Z,1840.00
2019-04-19T05:48:31.591Z,1856.00
2019-04-19T05:49:33.779Z,1872.00
2019-04-19T05:50:45.817Z,1892.00
2019-04-19T05:51:43.737Z,1904.00
2019-04-19T05:52:39.875Z,1920.00
2019-04-19T05:53:27.845Z,1936.00
2019-04-19T05:54:20.920Z,1952.00
2019-04-19T05:55:20.761Z,1968.00
2019-04-19T05:56:20.045Z,1980.00
2019-04-19T05:57:36.161Z,1992.00
2019-04-19T05:58:31.433Z,1992.00
2019-04-19T05:59:31.640Z,1988.00
2019-04-19T06:00:36.515Z,1988.00
2019-04-19T06:01:36.450Z,2000.00
2019-04-19T06:02:29.404Z,2028.00
2019-04-19T06:03:27.574Z,2052.00
2019-04-19T06:04:38.969Z,2072.00
2019-04-19T06:05:45.115Z,2088.00
2019-04-19T06:06:42.795Z,2104.00
2019-04-19T06:07:35.723Z,2132.00
2019-04-19T06:08:26.585Z,2152.00
2019-04-19T06:09:19.743Z,2176.00
2019-04-19T06:10:19.735Z,2196.00
2019-04-19T06:11:23.993Z,2212.00
2019-04-19T06:12:25.099Z,2228.00
2019-04-19T06:13:20.683Z,2244.00
2019-04-19T06:14:45.077Z,2252.00
2019-04-19T06:15:43.399Z,2268.00
2019-04-19T06:16:36.834Z,2284.00
2019-04-19T06:17:37.702Z,2304.00
2019-04-19T06:18:32.011Z,2328.00
2019-04-19T06:19:36.307Z,2340.00
2019-04-19T06:20:35.065Z,2356.00
2019-04-19T06:21:36.839Z,2376.00
2019-04-19T06:22:40.662Z,2388.00
2019-04-19T06:23:44.426Z,2412.00
2019-04-19T06:24:40.921Z,2424.00
2019-04-19T06:25:46.025Z,2440.00
2019-04-19T06:26:53.422Z,2448.00
2019-04-19T06:27:55.397Z,2464.00
2019-04-19T06:28:48.574Z,2476.00
2019-04-19T06:29:43.665Z,2484.00
2019-04-19T06:30:42.246Z,2512.00
2019-04-19T06:31:44.780Z,2520.00
2019-04-19T06:32:46.573Z,2536.00
2019-04-19T06:33:37.451Z,2548.00
2019-04-19T06:34:38.900Z,2560.00
2019-04-19T06:35:34.333Z,2568.00
2019-04-19T06:36:20.955Z,2584.00
2019-04-19T06:37:24.761Z,2600.00
2019-04-19T06:38:20.455Z,2624.00
2019-04-19T06:39:20.537Z,2636.00
2019-04-19T06:40:26.538Z,2664.00
2019-04-19T06:41:23.295Z,2684.00
2019-04-19T06:42:31.862Z,2708.00
2019-04-19T06:43:36.270Z,2724.00
2019-04-19T06:44:43.441Z,2740.00
2019-04-19T06:45:34.432Z,2760.00
2019-04-19T06:46:36.076Z,2760.00
2019-04-19T06:47:28.638Z,2760.00
2019-04-19T06:48:26.643Z,2760.00
2019-04-19T06:49:25.159Z,2772.00
2019-04-19T06:50:24.416Z,2788.00
2019-04-19T06:51:28.550Z,2812.00
2019-04-19T06:52:25.933Z,2824.00
2019-04-19T06:53:20.921Z,2832.00
2019-04-19T06:54:29.568Z,2848.00
2019-04-19T06:55:27.714Z,2860.00
2019-04-19T06:56:28.357Z,2856.00
2019-04-19T06:57:27.323Z,2848.00
2019-04-19T06:58:24.839Z,2880.00
2019-04-19T06:59:38.105Z,2872.00
2019-04-19T07:00:38.326Z,2896.00
2019-04-19T07:01:31.757Z,2904.00
2019-04-19T07:02:21.934Z,2896.00
2019-04-19T07:03:21.608Z,2920.00
2019-04-19T07:04:21.163Z,2932.00
2019-04-19T07:05:33.770Z,2948.00
2019-04-19T07:06:37.308Z,2948.00
2019-04-19T07:07:36.454Z,2964.00
2019-04-19T07:09:44.766Z,2984.00
2019-04-19T07:11:46.549Z,2996.00
2019-04-19T07:12:40.291Z,3004.00
2019-04-19T07:13:33.565Z,3020.00
2019-04-19T07:14:24.981Z,3020.00
2019-04-19T07:16:40.630Z,3052.00
2019-04-19T07:17:37.589Z,3060.00
2019-04-19T07:18:33.806Z,3080.00
2019-04-19T07:19:41.089Z,3088.00
2019-04-19T07:20:34.859Z,3100.00
2019-04-19T07:21:40.828Z,3104.00
2019-04-19T07:22:39.001Z,3116.00
2019-04-19T07:23:38.588Z,3132.00
2019-04-19T07:24:44.284Z,3148.00
2019-04-19T07:25:54.418Z,3224.00
2019-04-19T07:26:44.977Z,3164.00
2019-04-19T07:27:34.482Z,3184.00
2019-04-19T07:28:26.409Z,3204.00
2019-04-19T07:29:21.315Z,3216.00
2019-04-19T07:30:22.455Z,3228.00
2019-04-19T07:31:21.711Z,3240.00
2019-04-19T07:32:31.930Z,3248.00
2019-04-19T07:33:31.657Z,3260.00
2019-04-19T07:34:37.218Z,3280.00
2019-04-19T07:35:43.648Z,3312.00
2019-04-19T07:36:40.203Z,3304.00
2019-04-19T07:37:36.313Z,3312.00
2019-04-19T07:38:38.953Z,3340.00
2019-04-19T07:39:48.156Z,3380.00
2019-04-19T07:40:42.980Z,3376.00
2019-04-19T07:41:38.355Z,3392.00
2019-04-19T07:42:39.165Z,3412.00
2019-04-19T07:43:34.857Z,3432.00
2019-04-19T07:44:31.899Z,3432.00
2019-04-19T07:45:30.951Z,3472.00
2019-04-19T07:46:42.559Z,3500.00
2019-04-19T07:47:35.801Z,3528.00
2019-04-19T07:48:24.612Z,3524.00
2019-04-19T07:49:23.232Z,3548.00
2019-04-19T07:50:27.273Z,3560.00
2019-04-19T07:51:28.690Z,3592.00
2019-04-19T07:52:26.117Z,3628.00
2019-04-19T07:53:31.279Z,3624.00
2019-04-19T07:54:25.302Z,3652.00
2019-04-19T07:55:22.692Z,3668.00
2019-04-19T07:56:33.993Z,3704.00
2019-04-19T07:58:44.183Z,3736.00
2019-04-19T07:59:47.106Z,3752.00
2019-04-19T08:01:53.620Z,3812.00
2019-04-19T08:02:49.530Z,3824.00
2019-04-19T08:04:06.698Z,3876.00
2019-04-19T08:04:58.729Z,3908.00
2019-04-19T08:05:59.345Z,3960.00
2019-04-19T08:08:00.832Z,4024.00
2019-04-19T08:09:51.533Z,4100.00
2019-04-19T08:10:49.668Z,4140.00
2019-04-19T08:11:58.868Z,4160.00
2019-04-19T08:12:42.729Z,4200.00
2019-04-19T08:13:58.155Z,4260.00
2019-04-19T08:14:51.743Z,4284.00
2019-04-19T08:15:58.257Z,4316.00
2019-04-19T08:27:31.045Z,4760.00
2019-04-19T08:28:32.518Z,4784.00
2019-04-19T08:29:32.534Z,4800.00
2019-04-19T08:30:33.924Z,4840.00
2019-04-19T08:31:23.183Z,4860.00
2019-04-19T08:32:23.513Z,4860.00
2019-04-19T08:33:23.487Z,4892.00
2019-04-19T08:34:24.790Z,4896.00
2019-04-19T08:35:23.799Z,4916.00
2019-04-19T08:36:28.609Z,5008.00
2019-04-19T08:37:29.942Z,4988.00
2019-04-19T08:38:25.619Z,5000.00
2019-04-19T08:39:43.610Z,5012.00
2019-04-19T08:40:44.078Z,5044.00
2019-04-19T08:41:36.832Z,5068.00
2019-04-19T08:42:46.063Z,5080.00
2019-04-19T08:43:43.828Z,5116.00
2019-04-19T08:44:38.611Z,5144.00
2019-04-19T08:45:26.061Z,5144.00
2019-04-19T08:46:23.959Z,5144.00
2019-04-19T08:47:31.481Z,5136.00
2019-04-19T08:48:33.784Z,5152.00
2019-04-19T08:49:32.617Z,5180.00
2019-04-19T08:50:22.969Z,5216.00
2019-04-19T08:51:28.838Z,5216.00
2019-04-19T08:52:27.301Z,5208.00
2019-04-19T08:53:36.173Z,5224.00
2019-04-19T08:54:43.564Z,5232.00
2019-04-19T08:55:40.656Z,5220.00
2019-04-19T08:56:34.688Z,5232.00
2019-04-19T08:57:26.064Z,5348.00
2019-04-19T08:58:37.724Z,5292.00
2019-04-19T09:00:02.286Z,5272.00
2019-04-19T09:00:52.196Z,5288.00
2019-04-19T09:01:44.461Z,5284.00
2019-04-19T09:02:39.332Z,5324.00
2019-04-19T09:03:47.630Z,5324.00
2019-04-19T09:04:39.723Z,5300.00
2019-04-19T09:05:42.008Z,5268.00
2019-04-19T09:07:22.925Z,5240.00
2019-04-19T09:07:46.911Z,5244.00
2019-04-19T09:08:41.179Z,5248.00
2019-04-19T09:09:48.483Z,5264.00
2019-04-19T09:10:41.899Z,5252.00
2019-04-19T09:11:40.751Z,5296.00
2019-04-19T09:12:47.116Z,5284.00
2019-04-19T09:13:48.127Z,5300.00
2019-04-19T09:14:45.955Z,5252.00
2019-04-19T09:15:37.481Z,5260.00
2019-04-19T09:16:43.436Z,5240.00
2019-04-19T09:18:08.843Z,5252.00
2019-04-19T09:18:51.718Z,5256.00
2019-04-19T09:20:01.103Z,5280.00
2019-04-19T09:20:41.202Z,5412.00
2019-04-19T09:21:39.238Z,5268.00
2019-04-19T09:22:39.485Z,5292.00
2019-04-19T09:23:41.493Z,5280.00
2019-04-19T09:24:37.483Z,5224.00
2019-04-19T09:25:36.258Z,5204.00
2019-04-19T09:26:42.516Z,5616.00
2019-04-19T09:27:48.894Z,5196.00
2019-04-19T09:28:46.089Z,5204.00
2019-04-19T09:29:48.097Z,5168.00
2019-04-19T09:30:43.755Z,5164.00
2019-04-19T09:31:40.145Z,5168.00
2019-04-19T09:32:29.235Z,5176.00
2019-04-19T09:33:29.614Z,5148.00
2019-04-19T09:34:26.656Z,5148.00
2019-04-19T09:35:25.283Z,5136.00
2019-04-19T09:36:30.472Z,5132.00
2019-04-19T09:37:41.655Z,5088.00
2019-04-19T09:38:39.724Z,5124.00
2019-04-19T09:39:36.097Z,5076.00
2019-04-19T09:40:31.192Z,5076.00
2019-04-19T09:41:31.637Z,5064.00
2019-04-19T09:42:37.349Z,5048.00
2019-04-19T09:43:37.946Z,5008.00
2019-04-19T09:44:30.739Z,5032.00
2019-04-19T09:45:25.403Z,5020.00
2019-04-19T09:46:25.362Z,5004.00
2019-04-19T09:47:24.965Z,4988.00
2019-04-19T09:48:43.616Z,4972.00
2019-04-19T09:49:42.986Z,4948.00
2019-04-19T09:50:41.740Z,4960.00
2019-04-19T09:51:45.164Z,4904.00
2019-04-19T09:52:47.081Z,4916.00
2019-04-19T09:53:46.298Z,4920.00
2019-04-19T09:54:46.006Z,4868.00
2019-04-19T09:55:46.926Z,4860.00
2019-04-19T09:56:43.383Z,4760.00
2019-04-19T09:57:44.917Z,4752.00
2019-04-19T09:58:40.520Z,4740.00
2019-04-19T09:59:31.016Z,4740.00
2019-04-19T10:00:28.162Z,4728.00
2019-04-19T10:01:31.017Z,4700.00
2019-04-19T10:02:31.905Z,4728.00
2019-04-19T10:03:31.669Z,4688.00
2019-04-19T10:04:25.142Z,4660.00
2019-04-19T10:05:24.663Z,4700.00
2019-04-19T10:06:24.750Z,4608.00
2019-04-19T10:07:25.008Z,4612.00
2019-04-19T10:08:24.730Z,4584.00
2019-04-19T10:09:26.025Z,4656.00
2019-04-19T10:10:24.975Z,4592.00
2019-04-19T10:11:25.255Z,4604.00
2019-04-19T10:12:25.231Z,4552.00
2019-04-19T10:13:25.818Z,4536.00
2019-04-19T10:14:25.598Z,4564.00
2019-04-19T10:15:24.901Z,4552.00
2019-04-19T10:16:26.296Z,4504.00
2019-04-19T10:17:24.944Z,4540.00
2019-04-19T10:18:24.966Z,4520.00
2019-04-19T10:19:24.990Z,4472.00
2019-04-19T10:20:25.014Z,4464.00
2019-04-19T10:21:31.358Z,4436.00
2019-04-19T10:22:25.300Z,4468.00
2019-04-19T10:23:25.258Z,4480.00
2019-04-19T10:24:27.329Z,4476.00
2019-04-19T10:25:25.418Z,4476.00
2019-04-19T10:26:26.333Z,4468.00
2019-04-19T10:27:25.180Z,4452.00
2019-04-19T10:28:26.585Z,4416.00
2019-04-19T10:29:31.648Z,4408.00
2019-04-19T10:30:26.510Z,4436.00
2019-04-19T10:31:25.432Z,4412.00
2019-04-19T10:32:26.470Z,4380.00
2019-04-19T10:33:34.558Z,4448.00
2019-04-19T10:34:25.346Z,4388.00
2019-04-19T10:35:25.425Z,4364.00
2019-04-19T10:36:26.448Z,4372.00
2019-04-19T10:37:25.922Z,4336.00
2019-04-19T10:38:25.549Z,4352.00
2019-04-19T10:39:25.881Z,4320.00
2019-04-19T10:40:25.829Z,4300.00
2019-04-19T10:41:25.513Z,4280.00
2019-04-19T10:42:25.543Z,4276.00
2019-04-19T10:43:25.563Z,4292.00
2019-04-19T10:44:27.084Z,4272.00
2019-04-19T10:45:25.908Z,4272.00
2019-04-19T10:46:26.857Z,4224.00
2019-04-19T10:47:27.670Z,4240.00
2019-04-19T10:48:25.681Z,4272.00
2019-04-19T10:49:33.287Z,4248.00
2019-04-19T10:50:35.372Z,4224.00
2019-04-19T10:51:25.754Z,4216.00
2019-04-19T10:52:25.945Z,4200.00
2019-04-19T10:53:26.165Z,4132.00
2019-04-19T10:54:26.544Z,4216.00
2019-04-19T10:55:26.512Z,4192.00
2019-04-19T10:56:25.983Z,4156.00
2019-04-19T10:57:27.357Z,4176.00
2019-04-19T10:58:25.921Z,4204.00
2019-04-19T10:59:26.705Z,4172.00
2019-04-19T11:00:27.110Z,4168.00
2019-04-19T11:01:27.334Z,4128.00
2019-04-19T11:02:26.806Z,4372.00
2019-04-19T11:03:26.586Z,4128.00
2019-04-19T11:04:26.893Z,4148.00
2019-04-19T11:05:27.014Z,4140.00
2019-04-19T11:06:27.185Z,4128.00
2019-04-19T11:07:27.487Z,4064.00
2019-04-19T11:08:26.544Z,4128.00
2019-04-19T11:09:26.895Z,4080.00
2019-04-19T11:10:27.393Z,4100.00
2019-04-19T11:11:27.627Z,4092.00
2019-04-19T11:12:26.282Z,4080.00
2019-04-19T11:13:28.752Z,4100.00
2019-04-19T11:14:26.309Z,4084.00
2019-04-19T11:15:26.681Z,4072.00
2019-04-19T11:16:26.357Z,4068.00
2019-04-19T11:17:27.612Z,4052.00
2019-04-19T11:18:27.663Z,4076.00
2019-04-19T11:19:43.234Z,4076.00
2019-04-19T11:20:37.130Z,4072.00
2019-04-19T11:21:27.504Z,4048.00
2019-04-19T11:22:27.757Z,4028.00
2019-04-19T11:23:27.118Z,4040.00
2019-04-19T11:24:27.770Z,4028.00
2019-04-19T11:25:26.574Z,4028.00
2019-04-19T11:26:27.250Z,4020.00
2019-04-19T11:27:26.911Z,4060.00
2019-04-19T11:28:27.110Z,4012.00
2019-04-19T11:29:28.021Z,4032.00
2019-04-19T11:30:26.697Z,3988.00
2019-04-19T11:31:27.760Z,3948.00
2019-04-19T11:32:28.097Z,3980.00
2019-04-19T11:33:26.779Z,3968.00
2019-04-19T11:34:27.190Z,3972.00
2019-04-19T11:35:27.543Z,3904.00
2019-04-19T11:36:26.842Z,3968.00
2019-04-19T11:37:27.524Z,3952.00
2019-04-19T11:38:27.200Z,3960.00
2019-04-19T11:39:27.374Z,3980.00
2019-04-19T11:40:27.200Z,3960.00
2019-04-19T11:41:27.281Z,3948.00
2019-04-19T11:42:27.583Z,3940.00
2019-04-19T11:43:27.482Z,4024.00
2019-04-19T11:44:29.313Z,3924.00
2019-04-19T11:45:28.019Z,3936.00
2019-04-19T11:46:27.715Z,3948.00
2019-04-19T11:47:27.116Z,3908.00
2019-04-19T11:48:27.141Z,3924.00
2019-04-19T11:49:35.285Z,3924.00
2019-04-19T11:50:27.536Z,3916.00
2019-04-19T11:51:27.818Z,3908.00
2019-04-19T11:52:27.997Z,3900.00
2019-04-19T11:53:27.258Z,3872.00
2019-04-19T11:54:28.323Z,3924.00
2019-04-19T11:55:28.558Z,3908.00
2019-04-19T11:56:36.088Z,3896.00
2019-04-19T11:57:28.307Z,3924.00
2019-04-19T11:58:31.187Z,3876.00
2019-04-19T11:59:37.386Z,3944.00
2019-04-19T12:00:27.493Z,3904.00
2019-04-19T12:01:28.045Z,3844.00
2019-04-19T12:02:28.953Z,3880.00
2019-04-19T12:03:27.897Z,3880.00
2019-04-19T12:04:28.195Z,3872.00
2019-04-19T12:05:30.861Z,3896.00
2019-04-19T12:06:27.576Z,3892.00
2019-04-19T12:07:28.365Z,3900.00
2019-04-19T12:08:28.843Z,3940.00
2019-04-19T12:09:27.650Z,3876.00
2019-04-19T12:10:30.424Z,3880.00
2019-04-19T12:11:28.401Z,3864.00
2019-04-19T12:12:27.726Z,3868.00
2019-04-19T12:13:29.090Z,3892.00
2019-04-19T12:14:29.502Z,3860.00
2019-04-19T12:15:29.275Z,3804.00
2019-04-19T12:16:28.747Z,3828.00
2019-04-19T12:17:29.158Z,3820.00
2019-04-19T12:18:28.487Z,3832.00
2019-04-19T12:19:37.035Z,3804.00
2019-04-19T12:20:28.978Z,3804.00
2019-04-19T12:21:29.264Z,3812.00
2019-04-19T12:22:27.967Z,3816.00
2019-04-19T12:23:27.994Z,3804.00
2019-04-19T12:24:28.801Z,3788.00
2019-04-19T12:25:29.817Z,3816.00
2019-04-19T12:26:29.466Z,3804.00
2019-04-19T12:27:28.093Z,3776.00
2019-04-19T12:28:28.118Z,3808.00
2019-04-19T12:29:35.358Z,3800.00
2019-04-19T12:30:29.463Z,3784.00
2019-04-19T12:31:29.491Z,3804.00
2019-04-19T12:32:29.465Z,3780.00
2019-04-19T12:33:29.207Z,3824.00
2019-04-19T12:34:28.789Z,3804.00
2019-04-19T12:35:29.626Z,3804.00
2019-04-19T12:36:28.923Z,3796.00
2019-04-19T12:37:29.040Z,3796.00
2019-04-19T12:38:28.396Z,3792.00
2019-04-19T12:39:28.389Z,3844.00
2019-04-19T12:40:29.636Z,3816.00
2019-04-19T12:41:28.439Z,3804.00
2019-04-19T12:42:28.464Z,3804.00
2019-04-19T12:43:29.800Z,3820.00
2019-04-19T12:44:29.101Z,3804.00
2019-04-19T12:45:28.536Z,3792.00
2019-04-19T12:46:28.654Z,3780.00
2019-04-19T12:47:28.987Z,3772.00
2019-04-19T12:48:29.771Z,3808.00
2019-04-19T12:49:28.634Z,3808.00
2019-04-19T12:50:29.520Z,3804.00
2019-04-19T12:51:30.025Z,3816.00
2019-04-19T12:52:28.715Z,3808.00
2019-04-19T12:53:28.744Z,3928.00
2019-04-19T12:54:29.844Z,3804.00
2019-04-19T12:55:30.208Z,3800.00